METAR AND TAF INFORMATION
METAR FOR EDDN
ADDS - METARS form results

(1615 UTC 17 October 2018)
Data provider http://aviationweather.gov/metar/data/
 
METAR text: EDDN 171550Z 30003KT CAVOK 19/09 Q1018 NOSIG
Conditions at: EDDN (NUERNBERG , DE) observed 1550 UTC 17 October 2018
Temperature: 19.0°C (66°F)
Dewpoint: 9.0°C (48°F) [RH = 52%]
Pressure (altimeter): 30.06 inches Hg (1018.0 mb)
Winds: from the WNW (300 degrees) at 3 MPH (3 knots; 1.5 m/s)
Visibility: 6 or more miles (10+ km)
Ceiling: ceiling and visibility are OK
Clouds: unknown
Weather: no significant weather observed at this time

METAR text: EDDN 171520Z 31003KT CAVOK 20/09 Q1018 NOSIG
Conditions at: EDDN (NUERNBERG , DE) observed 1520 UTC 17 October 2018
Temperature: 20.0°C (68°F)
Dewpoint: 9.0°C (48°F) [RH = 49%]
Pressure (altimeter): 30.06 inches Hg (1018.0 mb)
Winds: from the NW (310 degrees) at 3 MPH (3 knots; 1.5 m/s)
Visibility: 6 or more miles (10+ km)
Ceiling: ceiling and visibility are OK
Clouds: unknown
Weather: no significant weather observed at this time

Forecast for: EDDN (NUERNBERG , DE)
Text: TAF EDDN 171100Z 1712/1812 VRB02KT CAVOK
Forecast period: 1200 UTC 17 October 2018 to 1200 UTC 18 October 2018
Forecast type: FROM: standard forecast or significant change
Winds: variable direction winds at 2 MPH (2 knots; 1.0 m/s)
Visibility: 6 or more miles 10+ km)
Ceiling: unknown
Clouds: missing
Weather: NSW  (no significant weather)

 AIRPORT MAP

 RUNWAY INFORMATION
Runway 10 Runway length 8858 ft Runway width 148 ft
Runway elevation 1022 ft Runway displaced threshold 0 ft Runway heading 99
Runway 28 Runway length 8858 ft Runway width 148 ft
Runway elevation 1046 ft Runway displaced threshold 0 ft Runway heading 279

 AIRPORT FREQUENCIES
Type AFIS Name MUNCHEN IN Frequency 120.65 MHZ
Type ATIS Name ATIS Frequency 123.075 MHZ
Type DIR Name DIR Frequency 119.475 MHZ
Type GND Name GND Frequency 118.1 MHZ
Type RDR Name MUNCHEN RA Frequency 118.975 MHZ
Type TWR Name TWR Frequency 118.3 MHZ

 AIRPORT NEAR NAVIGATION AIDS
Type DME Name Nurnberg Frequency 113100 KHZ
Type NDB Name Rothenbach Frequency 415 KHZ



Air Greece virtual AIrline - All rights reserved 2018 - Powered by Virtual Airlines Manager [v2.6.2]